Time;durP1;ratioP1;P1;durP2;ratioP2;P2;SDS_P1;SDS_P2;PMS_P1;PMS_P2;Temp;Humidity;BMP_temperature;BMP_pressure;BME280_temperature;BME280_humidity;BME280_pressure;Samples;Min_cycle;Max_cycle;Signal;HPM_P1;HPM_P2
2023/05/27 00:00:20;;;;;;;18.83;6.65;;;8.20;99.90;;;;;;7374122;19;20015;-63
2023/05/27 00:02:47;;;;;;;20.55;5.57;;;8.10;99.90;;;;;;7371876;19;20014;-63
2023/05/27 00:05:13;;;;;;;20.35;5.85;;;8.10;99.90;;;;;;7374571;19;20015;-63
2023/05/27 00:07:41;;;;;;;19.40;5.60;;;8.10;99.90;;;;;;7374158;19;20415;-63
2023/05/27 00:10:07;;;;;;;19.33;6.35;;;8.00;99.90;;;;;;7374092;19;20443;-62
2023/05/27 00:12:33;;;;;;;17.90;5.32;;;8.00;99.90;;;;;;7372977;19;20014;-63
2023/05/27 00:14:59;;;;;;;18.35;5.85;;;7.90;99.90;;;;;;7369366;19;20022;-63
2023/05/27 00:17:26;;;;;;;14.75;5.57;;;7.90;99.90;;;;;;7368742;19;20010;-61
2023/05/27 00:19:53;;;;;;;19.08;6.18;;;7.90;99.90;;;;;;7371978;19;20025;-61
2023/05/27 00:22:20;;;;;;;13.82;6.32;;;7.80;99.90;;;;;;7371172;19;20018;-61
2023/05/27 00:24:46;;;;;;;19.17;6.78;;;7.80;99.90;;;;;;7369102;19;20018;-61
2023/05/27 00:27:12;;;;;;;17.65;5.82;;;7.70;99.90;;;;;;7374314;19;20362;-61
2023/05/27 00:29:39;;;;;;;21.67;5.90;;;7.70;99.90;;;;;;7369318;19;20458;-61
2023/05/27 00:32:05;;;;;;;14.90;5.20;;;7.70;99.90;;;;;;7367736;19;20022;-61
2023/05/27 00:34:34;;;;;;;19.15;5.88;;;7.70;99.90;;;;;;7369676;19;20015;-62
2023/05/27 00:37:01;;;;;;;19.02;6.07;;;7.70;99.90;;;;;;7370484;19;20481;-61
2023/05/27 00:39:27;;;;;;;13.50;6.15;;;7.70;99.90;;;;;;7367941;19;20018;-61
2023/05/27 00:41:54;;;;;;;17.60;5.22;;;7.60;99.90;;;;;;7369478;19;20419;-61
2023/05/27 00:44:21;;;;;;;15.88;5.70;;;7.60;99.90;;;;;;7366874;19;20112;-61
2023/05/27 00:46:48;;;;;;;17.38;5.50;;;7.60;99.90;;;;;;7367173;19;20501;-62
2023/05/27 00:49:19;;;;;;;18.35;6.45;;;7.60;99.90;;;;;;7368128;19;20018;-61
2023/05/27 00:51:45;;;;;;;14.77;5.68;;;7.60;99.90;;;;;;7371196;19;20082;-61
2023/05/27 00:54:12;;;;;;;23.40;7.18;;;7.50;99.90;;;;;;7366146;19;20022;-61
2023/05/27 00:56:39;;;;;;;15.95;6.00;;;7.50;99.90;;;;;;7364536;19;20015;-63
2023/05/27 00:59:05;;;;;;;20.20;6.00;;;7.50;99.90;;;;;;7368258;19;20494;-63
2023/05/27 01:01:33;;;;;;;18.73;6.45;;;7.40;99.90;;;;;;7368858;19;20869;-63
2023/05/27 01:04:01;;;;;;;17.90;5.72;;;7.40;99.90;;;;;;7366731;19;20014;-63
2023/05/27 01:06:48;;;;;;;14.90;6.28;;;7.40;99.90;;;;;;7373527;19;20514;-63
2023/05/27 01:09:28;;;;;;;16.88;7.18;;;7.40;99.90;;;;;;7379609;19;20558;-63
2023/05/27 01:12:14;;;;;;;19.33;6.03;;;7.30;99.90;;;;;;7374288;19;20018;-63
2023/05/27 01:14:44;;;;;;;17.42;6.10;;;7.30;99.90;;;;;;7379701;19;20023;-63
2023/05/27 01:17:12;;;;;;;16.70;6.57;;;7.20;99.90;;;;;;7376768;19;20022;-63
2023/05/27 01:19:42;;;;;;;18.85;5.85;;;7.20;99.90;;;;;;7379998;19;20026;-63
2023/05/27 01:22:12;;;;;;;19.30;7.10;;;7.20;99.90;;;;;;7381057;19;20510;-63
2023/05/27 01:24:38;;;;;;;16.30;6.45;;;7.20;99.90;;;;;;7380832;19;20025;-63
2023/05/27 01:27:04;;;;;;;19.35;7.55;;;7.10;99.90;;;;;;7377781;19;20018;-63
2023/05/27 01:29:31;;;;;;;20.77;6.30;;;7.10;99.90;;;;;;7379490;19;20015;-63
2023/05/27 01:32:13;;;;;;;20.25;7.25;;;7.10;99.90;;;;;;7377010;19;20100;-63
2023/05/27 01:35:06;;;;;;;14.13;6.05;;;7.10;99.90;;;;;;7376560;19;20029;-63
2023/05/27 01:37:38;;;;;;;13.88;6.10;;;7.10;99.90;;;;;;7367913;19;20027;-63
2023/05/27 01:40:08;;;;;;;16.20;5.93;;;7.10;99.90;;;;;;7377783;19;21498;-63
2023/05/27 01:42:37;;;;;;;16.27;5.85;;;7.00;99.90;;;;;;7379120;19;20022;-63
2023/05/27 01:45:05;;;;;;;13.38;5.47;;;7.00;99.90;;;;;;7373912;19;20018;-63
2023/05/27 01:47:32;;;;;;;14.30;5.35;;;7.00;99.90;;;;;;7374465;19;20019;-63
2023/05/27 01:49:59;;;;;;;13.57;6.32;;;7.00;99.90;;;;;;7372898;19;20042;-63
2023/05/27 01:52:28;;;;;;;19.17;6.43;;;6.90;99.90;;;;;;7373950;19;20056;-61
2023/05/27 01:54:54;;;;;;;16.65;6.35;;;6.90;99.90;;;;;;7374357;19;20490;-61
2023/05/27 01:57:21;;;;;;;14.10;6.60;;;6.90;99.90;;;;;;7374153;19;20038;-61
2023/05/27 01:59:48;;;;;;;14.85;6.22;;;6.90;99.90;;;;;;7374575;19;20022;-61
2023/05/27 02:02:15;;;;;;;20.02;5.68;;;6.90;99.90;;;;;;7368947;19;20057;-63
2023/05/27 02:04:42;;;;;;;17.27;6.22;;;6.90;99.90;;;;;;7371056;19;20014;-63
2023/05/27 02:07:08;;;;;;;19.05;6.57;;;6.90;99.90;;;;;;7376833;19;20019;-63
2023/05/27 02:09:34;;;;;;;16.35;6.18;;;6.90;99.90;;;;;;7375913;19;20018;-63
2023/05/27 02:12:01;;;;;;;15.52;5.97;;;6.90;99.90;;;;;;7369774;19;20022;-63
2023/05/27 02:14:27;;;;;;;18.17;6.00;;;6.90;99.90;;;;;;7377333;19;20022;-63
2023/05/27 02:16:54;;;;;;;15.68;5.80;;;7.00;99.90;;;;;;7376043;19;20076;-64
2023/05/27 02:19:21;;;;;;;21.60;6.95;;;7.00;99.90;;;;;;7373899;19;20065;-63
2023/05/27 02:21:48;;;;;;;20.25;5.82;;;7.00;99.90;;;;;;7372464;19;20025;-63
2023/05/27 02:24:14;;;;;;;19.40;6.72;;;6.90;99.90;;;;;;7375249;19;20014;-63
2023/05/27 02:26:40;;;;;;;17.67;6.50;;;6.90;99.90;;;;;;7378070;19;20344;-63
2023/05/27 02:29:10;;;;;;;19.63;6.18;;;6.90;99.90;;;;;;7372145;19;20014;-63
2023/05/27 02:31:36;;;;;;;16.33;5.75;;;6.90;99.90;;;;;;7372707;19;20134;-63
2023/05/27 02:34:05;;;;;;;19.73;6.60;;;6.90;99.90;;;;;;7374819;19;20521;-64
2023/05/27 02:36:33;;;;;;;16.40;6.35;;;6.90;99.90;;;;;;7376876;19;20060;-63
2023/05/27 02:38:59;;;;;;;21.35;7.05;;;6.90;99.90;;;;;;7374283;19;20018;-63
2023/05/27 02:41:26;;;;;;;18.23;6.25;;;6.90;99.90;;;;;;7377628;19;20510;-63
2023/05/27 02:43:54;;;;;;;17.92;6.30;;;6.80;99.90;;;;;;7370528;19;20113;-63
2023/05/27 02:46:21;;;;;;;18.25;6.60;;;6.80;99.90;;;;;;7378963;19;20026;-62
2023/05/27 02:48:47;;;;;;;23.10;7.05;;;6.80;99.90;;;;;;7375494;19;20017;-61
2023/05/27 02:51:13;;;;;;;16.73;6.50;;;6.80;99.90;;;;;;7377650;19;20046;-61
2023/05/27 02:53:39;;;;;;;23.02;6.70;;;6.80;99.90;;;;;;7369743;19;20014;-61
2023/05/27 02:56:06;;;;;;;17.52;6.30;;;6.80;99.90;;;;;;7374547;19;20029;-61
2023/05/27 02:58:32;;;;;;;18.08;5.63;;;6.80;99.90;;;;;;7373817;19;20022;-61
2023/05/27 03:00:58;;;;;;;20.52;6.90;;;6.80;99.90;;;;;;7373254;19;20543;-61
2023/05/27 03:03:25;;;;;;;16.95;6.60;;;6.80;99.90;;;;;;7371397;19;20022;-63
2023/05/27 03:05:52;;;;;;;16.70;6.28;;;6.90;99.90;;;;;;7371534;19;20631;-64
2023/05/27 03:08:18;;;;;;;22.77;6.70;;;6.80;99.90;;;;;;7369775;19;20022;-64
2023/05/27 03:10:44;;;;;;;19.20;7.47;;;6.90;99.90;;;;;;7375869;19;20056;-61
2023/05/27 03:13:11;;;;;;;20.63;6.78;;;6.90;99.90;;;;;;7369585;19;20018;-61
2023/05/27 03:15:38;;;;;;;14.73;6.38;;;6.90;99.90;;;;;;7375857;19;20022;-61
2023/05/27 03:18:04;;;;;;;21.80;6.68;;;6.90;99.90;;;;;;7371603;19;20061;-61
2023/05/27 03:20:31;;;;;;;20.70;6.53;;;7.00;99.90;;;;;;7372469;19;20462;-61
2023/05/27 03:22:57;;;;;;;16.48;7.40;;;7.00;99.90;;;;;;7372567;19;20017;-61
2023/05/27 03:25:24;;;;;;;24.50;6.90;;;7.00;99.90;;;;;;7372835;19;20502;-61
2023/05/27 03:28:10;;;;;;;19.75;7.30;;;7.10;99.90;;;;;;7371355;19;20491;-61
2023/05/27 03:30:38;;;;;;;16.38;6.90;;;7.20;99.90;;;;;;7370798;19;20015;-61
2023/05/27 03:33:04;;;;;;;18.27;7.13;;;7.30;99.90;;;;;;7368674;19;20478;-61
2023/05/27 03:35:35;;;;;;;19.90;6.32;;;7.30;99.90;;;;;;7368243;19;20026;-64
2023/05/27 03:38:03;;;;;;;17.83;6.47;;;7.30;99.90;;;;;;7369628;19;20018;-64
2023/05/27 03:40:29;;;;;;;16.27;7.47;;;7.30;99.90;;;;;;7368422;19;20018;-64
2023/05/27 03:42:55;;;;;;;21.23;6.45;;;7.40;99.90;;;;;;7369979;19;20022;-64
2023/05/27 03:45:23;;;;;;;18.90;6.43;;;7.40;99.90;;;;;;7370726;19;20010;-64
2023/05/27 03:47:50;;;;;;;16.65;6.65;;;7.40;99.90;;;;;;7373247;19;20474;-64
2023/05/27 03:50:18;;;;;;;21.08;6.30;;;7.50;99.90;;;;;;7369256;19;21208;-64
2023/05/27 03:52:46;;;;;;;19.80;6.78;;;7.50;99.90;;;;;;7371507;19;20378;-64
2023/05/27 03:55:13;;;;;;;15.13;6.30;;;7.60;99.90;;;;;;7371949;19;20693;-64
2023/05/27 03:57:40;;;;;;;19.08;7.95;;;7.60;99.90;;;;;;7369779;19;20646;-64
2023/05/27 04:00:13;;;;;;;17.63;6.03;;;7.70;99.90;;;;;;7370405;19;20125;-64
2023/05/27 04:02:49;;;;;;;18.95;6.30;;;7.70;99.90;;;;;;7369785;19;20018;-64
2023/05/27 04:05:17;;;;;;;14.48;6.68;;;7.80;99.90;;;;;;7372774;19;20029;-64
2023/05/27 04:07:44;;;;;;;14.70;6.85;;;7.90;99.90;;;;;;7373548;19;20043;-65
2023/05/27 04:10:11;;;;;;;23.92;7.68;;;8.00;99.90;;;;;;7373792;19;20018;-64
2023/05/27 04:12:40;;;;;;;15.68;6.50;;;8.10;99.90;;;;;;7370781;19;20018;-64
2023/05/27 04:15:08;;;;;;;19.88;6.25;;;8.20;99.90;;;;;;7371627;19;20082;-61
2023/05/27 04:17:35;;;;;;;25.73;7.88;;;8.30;99.90;;;;;;7373909;19;20817;-61
2023/05/27 04:20:08;;;;;;;22.33;6.65;;;8.40;99.90;;;;;;7369814;19;20378;-61
2023/05/27 04:22:35;;;;;;;20.65;7.50;;;8.50;99.90;;;;;;7370937;19;20585;-64
2023/05/27 04:25:02;;;;;;;19.95;6.43;;;8.60;99.90;;;;;;7370778;19;20022;-64
2023/05/27 04:27:29;;;;;;;15.25;6.20;;;8.60;99.90;;;;;;7369935;19;20018;-64
2023/05/27 04:29:55;;;;;;;21.70;6.90;;;8.70;99.90;;;;;;7369998;19;20018;-64
2023/05/27 04:32:25;;;;;;;16.20;6.93;;;8.80;99.90;;;;;;7371053;19;20026;-61
2023/05/27 04:34:51;;;;;;;21.17;7.03;;;8.90;99.90;;;;;;7367883;19;20041;-64
2023/05/27 04:37:19;;;;;;;17.08;6.93;;;8.90;99.90;;;;;;7371490;19;20093;-64
2023/05/27 04:39:46;;;;;;;22.75;6.22;;;8.90;99.90;;;;;;7371329;19;20018;-61
2023/05/27 04:42:15;;;;;;;19.85;7.03;;;9.00;99.90;;;;;;7368286;19;20018;-61
2023/05/27 04:44:44;;;;;;;19.30;6.85;;;9.00;99.90;;;;;;7370954;19;20046;-61
2023/05/27 04:47:10;;;;;;;25.00;7.47;;;9.10;99.90;;;;;;7369545;19;20332;-61
2023/05/27 04:49:37;;;;;;;20.33;7.65;;;9.10;99.90;;;;;;7370671;19;20034;-61
2023/05/27 04:52:06;;;;;;;18.10;7.13;;;9.20;99.90;;;;;;7369076;19;20023;-61
2023/05/27 04:54:34;;;;;;;20.33;6.35;;;9.20;99.90;;;;;;7369076;19;20687;-61
2023/05/27 04:57:04;;;;;;;18.35;6.35;;;9.20;99.90;;;;;;7368406;19;20035;-61
2023/05/27 05:02:22;;;;;;;18.08;6.40;;;9.20;99.90;;;;;;7371234;19;20679;-61
2023/05/27 05:05:11;;;;;;;20.50;7.15;;;9.30;99.90;;;;;;7366189;19;20406;-65
2023/05/27 05:07:40;;;;;;;19.52;5.90;;;9.40;99.90;;;;;;7370062;19;20015;-65
2023/05/27 05:10:09;;;;;;;17.85;6.05;;;9.50;99.90;;;;;;7367550;19;20018;-65
2023/05/27 05:12:42;;;;;;;15.88;6.32;;;9.60;99.90;;;;;;7367845;19;20019;-61
2023/05/27 05:15:10;;;;;;;19.02;6.38;;;9.80;99.90;;;;;;7368102;19;20474;-60
2023/05/27 05:17:36;;;;;;;24.33;6.72;;;10.00;99.90;;;;;;7367430;19;20026;-61
2023/05/27 05:20:03;;;;;;;17.30;6.57;;;10.10;99.90;;;;;;7368966;19;20026;-60
2023/05/27 05:22:30;;;;;;;19.80;6.32;;;10.30;99.90;;;;;;7369500;19;20034;-61
2023/05/27 05:24:56;;;;;;;17.88;5.72;;;10.60;99.90;;;;;;7366626;19;20030;-61
2023/05/27 05:27:34;;;;;;;15.38;5.57;;;10.80;99.90;;;;;;7370535;19;20018;-61
2023/05/27 05:30:00;;;;;;;15.45;5.18;;;11.00;99.90;;;;;;7369100;19;20026;-61
2023/05/27 05:32:26;;;;;;;19.08;6.13;;;11.10;99.90;;;;;;7373812;19;20018;-61
2023/05/27 05:34:54;;;;;;;19.05;6.10;;;11.40;99.90;;;;;;7368577;19;20027;-61
2023/05/27 05:37:20;;;;;;;15.93;5.40;;;11.60;99.90;;;;;;7371460;19;20442;-61
2023/05/27 05:39:48;;;;;;;14.40;5.45;;;11.70;99.90;;;;;;7366204;19;20030;-61
2023/05/27 05:42:14;;;;;;;17.52;5.80;;;11.90;99.90;;;;;;7366049;19;20129;-62
2023/05/27 05:44:41;;;;;;;20.90;6.10;;;12.00;99.90;;;;;;7361796;19;20019;-60
2023/05/27 05:47:07;;;;;;;22.08;6.10;;;12.20;99.90;;;;;;7365591;19;20043;-61
2023/05/27 05:49:35;;;;;;;15.85;5.70;;;12.50;99.90;;;;;;7367742;19;20094;-64
2023/05/27 05:52:01;;;;;;;16.60;5.13;;;12.80;99.90;;;;;;7368847;19;20872;-61
2023/05/27 05:54:28;;;;;;;18.83;5.20;;;12.90;99.90;;;;;;7372080;19;20014;-61
2023/05/27 05:56:56;;;;;;;14.20;5.35;;;12.70;99.90;;;;;;7371728;19;20022;-61
2023/05/27 05:59:22;;;;;;;20.48;7.38;;;12.70;99.90;;;;;;7373037;19;20832;-60
2023/05/27 06:01:49;;;;;;;18.00;6.50;;;12.50;99.90;;;;;;7375422;19;20018;-61
2023/05/27 06:04:17;;;;;;;19.50;8.77;;;12.40;99.90;;;;;;7370714;19;20029;-61
2023/05/27 06:06:45;;;;;;;18.83;5.07;;;12.40;99.90;;;;;;7375330;19;20741;-64
2023/05/27 06:09:30;;;;;;;15.82;4.68;;;12.50;99.90;;;;;;7373791;19;20493;-64
2023/05/27 06:12:01;;;;;;;20.43;5.20;;;12.90;99.90;;;;;;7376108;19;20018;-61
2023/05/27 06:14:32;;;;;;;20.03;5.80;;;13.20;99.90;;;;;;7372872;19;20331;-61
2023/05/27 06:16:59;;;;;;;18.70;7.85;;;13.40;99.90;;;;;;7376722;19;20293;-61
2023/05/27 06:19:25;;;;;;;17.35;6.07;;;13.50;99.90;;;;;;7371415;19;20592;-61
2023/05/27 06:21:51;;;;;;;18.27;4.97;;;13.50;99.90;;;;;;7375705;19;20478;-61
2023/05/27 06:24:19;;;;;;;19.92;5.93;;;13.70;99.90;;;;;;7376117;19;20057;-59
2023/05/27 06:26:49;;;;;;;15.32;5.07;;;13.70;99.90;;;;;;7377632;19;20015;-67
2023/05/27 06:29:18;;;;;;;17.67;5.50;;;13.60;99.90;;;;;;7374437;19;20070;-67
2023/05/27 06:31:46;;;;;;;18.25;4.93;;;13.40;99.90;;;;;;7368504;19;20018;-59
2023/05/27 06:34:12;;;;;;;15.95;4.93;;;13.20;99.90;;;;;;7375781;19;20030;-60
2023/05/27 06:36:38;;;;;;;13.85;5.15;;;12.90;99.90;;;;;;7373250;19;20014;-60
2023/05/27 06:39:04;;;;;;;17.63;6.35;;;12.50;99.90;;;;;;7374119;19;20022;-61
2023/05/27 06:41:34;;;;;;;16.60;5.10;;;12.50;99.90;;;;;;7369816;19;20487;-59
2023/05/27 06:44:23;;;;;;;21.55;5.47;;;12.50;99.90;;;;;;7377300;19;20014;-59
2023/05/27 06:46:57;;;;;;;22.67;9.82;;;12.80;99.90;;;;;;7373929;19;20014;-67
2023/05/27 06:49:29;;;;;;;22.13;8.65;;;13.20;99.90;;;;;;7373837;19;20041;-67
2023/05/27 06:51:57;;;;;;;17.02;4.97;;;13.60;99.90;;;;;;7368665;19;20769;-67
2023/05/27 06:54:24;;;;;;;19.40;7.68;;;13.80;99.90;;;;;;7373399;19;20018;-67
2023/05/27 06:56:53;;;;;;;19.65;4.68;;;14.10;99.90;;;;;;7372165;19;20526;-66
2023/05/27 06:59:48;;;;;;;15.98;4.75;;;14.50;99.90;;;;;;7371971;19;20027;-67
2023/05/27 07:02:15;;;;;;;16.08;6.15;;;14.50;99.90;;;;;;7373184;19;20632;-67
2023/05/27 07:04:41;;;;;;;13.52;4.53;;;14.80;99.90;;;;;;7367600;19;20026;-68
2023/05/27 07:07:09;;;;;;;21.08;8.88;;;14.90;99.90;;;;;;7373142;19;20024;-68
2023/05/27 07:09:36;;;;;;;13.15;4.57;;;15.00;99.90;;;;;;7371473;19;20767;-68
2023/05/27 07:12:03;;;;;;;13.32;4.45;;;15.20;99.90;;;;;;7370173;19;20022;-63
2023/05/27 07:14:51;;;;;;;18.15;5.78;;;15.40;99.90;;;;;;7371342;19;20015;-67
2023/05/27 07:17:18;;;;;;;13.68;5.13;;;15.70;99.90;;;;;;7375188;19;20367;-68
2023/05/27 07:19:44;;;;;;;20.83;4.88;;;16.00;99.90;;;;;;7370718;19;20039;-68
2023/05/27 07:22:16;;;;;;;145.55;130.95;;;16.10;99.90;;;;;;7375148;19;20022;-63
2023/05/27 07:24:43;;;;;;;44.97;39.40;;;16.50;99.90;;;;;;7371836;19;20688;-65
2023/05/27 07:27:10;;;;;;;19.80;10.35;;;16.70;99.90;;;;;;7374273;19;20019;-64
2023/05/27 07:29:40;;;;;;;22.63;14.10;;;16.70;99.90;;;;;;7371747;19;20400;-64
2023/05/27 07:32:06;;;;;;;15.07;5.43;;;16.90;99.90;;;;;;7375501;19;20019;-63
2023/05/27 07:34:35;;;;;;;14.63;5.18;;;17.00;99.90;;;;;;7371744;19;20006;-63
2023/05/27 07:37:02;;;;;;;20.88;6.57;;;17.40;99.90;;;;;;7372115;19;20018;-63
2023/05/27 07:39:28;;;;;;;22.70;11.85;;;17.40;99.90;;;;;;7372754;19;20015;-63
2023/05/27 07:41:54;;;;;;;39.75;26.75;;;17.60;99.90;;;;;;7372464;19;20037;-63
2023/05/27 07:44:22;;;;;;;15.10;6.10;;;17.90;99.90;;;;;;7373447;19;20473;-62
2023/05/27 07:46:48;;;;;;;14.65;6.10;;;17.90;99.90;;;;;;7369105;19;20037;-62
2023/05/27 07:49:15;;;;;;;17.17;7.68;;;17.90;99.90;;;;;;7372254;19;20034;-62
2023/05/27 07:52:07;;;;;;;38.45;30.17;;;18.30;99.90;;;;;;7370105;19;20023;-67
2023/05/27 07:54:34;;;;;;;16.38;5.40;;;18.20;99.90;;;;;;7366955;19;20018;-72
2023/05/27 07:57:00;;;;;;;16.80;5.65;;;18.20;99.90;;;;;;7369949;19;20022;-70
2023/05/27 07:59:27;;;;;;;16.85;5.95;;;18.30;99.90;;;;;;7371421;19;20680;-66
2023/05/27 08:01:53;;;;;;;23.20;12.05;;;18.40;99.90;;;;;;7371905;19;20377;-66
2023/05/27 08:04:19;;;;;;;18.70;10.35;;;18.60;99.90;;;;;;7373683;19;20905;-72
2023/05/27 08:07:09;;;;;;;18.65;7.90;;;18.90;99.90;;;;;;7373933;19;20015;-65
2023/05/27 08:09:54;;;;;;;17.92;6.60;;;19.00;99.90;;;;;;7379913;19;20023;-67
2023/05/27 08:12:33;;;;;;;13.18;5.63;;;19.30;99.90;;;;;;7374464;19;20370;-68
2023/05/27 08:15:12;;;;;;;13.88;4.93;;;19.20;99.90;;;;;;7371717;19;20026;-64
2023/05/27 08:17:44;;;;;;;15.63;5.57;;;19.30;98.90;;;;;;7364182;19;20018;-64
2023/05/27 08:20:39;;;;;;;21.63;12.02;;;19.30;98.80;;;;;;7373620;19;20014;-67
2023/05/27 08:23:26;;;;;;;16.00;8.00;;;19.50;99.90;;;;;;7372213;19;20036;-66
2023/05/27 08:26:18;;;;;;;18.85;6.93;;;19.80;99.90;;;;;;7369535;19;20019;-65
2023/05/27 08:28:54;;;;;;;25.05;19.40;;;19.80;98.40;;;;;;7368200;19;20549;-64
2023/05/27 08:31:38;;;;;;;19.30;5.90;;;20.20;97.00;;;;;;7377277;19;20018;-64
2023/05/27 08:34:04;;;;;;;15.73;8.13;;;20.30;93.20;;;;;;7371179;19;20817;-64
2023/05/27 08:36:33;;;;;;;18.38;7.03;;;20.40;92.40;;;;;;7372662;19;20027;-67
2023/05/27 08:39:00;;;;;;;15.63;8.40;;;20.80;79.00;;;;;;7369363;19;20071;-67
2023/05/27 08:41:36;;;;;;;22.73;13.00;;;20.40;78.50;;;;;;7367816;19;20014;-67
2023/05/27 08:44:04;;;;;;;14.00;5.20;;;20.70;72.10;;;;;;7367700;19;20043;-68
2023/05/27 08:46:31;;;;;;;14.85;5.53;;;20.80;71.20;;;;;;7367892;19;20074;-67
2023/05/27 08:48:58;;;;;;;13.95;5.90;;;21.10;68.60;;;;;;7367988;19;20022;-67
2023/05/27 08:51:26;;;;;;;15.95;6.10;;;21.00;62.30;;;;;;7365804;19;20015;-67
2023/05/27 08:53:53;;;;;;;24.30;13.57;;;21.30;61.50;;;;;;7364092;19;20023;-67
2023/05/27 08:56:22;;;;;;;16.42;7.20;;;20.90;61.30;;;;;;7368363;19;20945;-67
2023/05/27 08:58:51;;;;;;;14.95;5.35;;;20.70;61.60;;;;;;7374324;19;20015;-66
2023/05/27 09:01:18;;;;;;;22.75;13.35;;;20.90;61.20;;;;;;7371808;19;20019;-64
2023/05/27 09:03:47;;;;;;;16.88;7.65;;;20.90;62.10;;;;;;7373742;19;20520;-64
2023/05/27 09:06:14;;;;;;;17.63;6.47;;;20.80;60.30;;;;;;7369112;19;20347;-65
2023/05/27 09:08:40;;;;;;;19.88;8.45;;;20.80;61.20;;;;;;7374656;19;20027;-64
2023/05/27 09:11:07;;;;;;;16.17;5.65;;;21.00;61.40;;;;;;7372186;19;20478;-62
2023/05/27 09:13:35;;;;;;;19.20;8.70;;;21.30;61.60;;;;;;7379713;19;20018;-62
2023/05/27 09:16:05;;;;;;;15.40;6.18;;;21.30;60.30;;;;;;7369172;19;21909;-66
2023/05/27 09:18:33;;;;;;;22.67;10.40;;;21.80;59.90;;;;;;7372453;19;20014;-66
2023/05/27 09:21:00;;;;;;;12.80;5.70;;;21.90;58.80;;;;;;7369300;19;20070;-66
2023/05/27 09:23:26;;;;;;;13.95;5.53;;;22.00;59.00;;;;;;7375129;19;20552;-63
2023/05/27 09:25:53;;;;;;;17.30;6.45;;;22.10;59.20;;;;;;7373540;19;20051;-63
2023/05/27 09:28:24;;;;;;;13.40;5.60;;;22.10;57.20;;;;;;7379679;19;20030;-66
2023/05/27 09:31:01;;;;;;;26.25;13.05;;;22.10;57.60;;;;;;7383122;19;20395;-64
2023/05/27 09:33:35;;;;;;;18.13;6.57;;;21.90;57.30;;;;;;7379156;19;20511;-73
2023/05/27 09:36:03;;;;;;;19.52;12.98;;;22.10;58.10;;;;;;7383311;19;20050;-64
2023/05/27 09:38:30;;;;;;;26.08;14.82;;;22.30;58.40;;;;;;7379238;19;20060;-65
2023/05/27 09:41:00;;;;;;;26.70;15.88;;;22.70;57.90;;;;;;7381913;19;20086;-64
2023/05/27 09:43:28;;;;;;;19.08;10.60;;;22.60;56.30;;;;;;7375267;19;20379;-64
2023/05/27 09:46:10;;;;;;;14.57;6.65;;;22.80;56.50;;;;;;7376622;19;20620;-64
2023/05/27 09:48:38;;;;;;;20.05;8.85;;;22.90;54.90;;;;;;7373897;19;20486;-68
2023/05/27 09:51:05;;;;;;;15.00;6.07;;;22.90;55.80;;;;;;7371398;19;20022;-68
2023/05/27 09:53:35;;;;;;;16.75;6.10;;;23.00;56.30;;;;;;7373918;19;20034;-70
2023/05/27 09:56:02;;;;;;;15.40;5.38;;;23.30;54.90;;;;;;7381572;19;20467;-70
2023/05/27 09:58:28;;;;;;;43.08;28.63;;;23.30;54.60;;;;;;7373868;19;20026;-65
2023/05/27 10:00:56;;;;;;;21.67;12.68;;;23.70;53.90;;;;;;7376418;19;20021;-66
2023/05/27 10:03:28;;;;;;;18.08;6.53;;;23.40;53.10;;;;;;7377934;19;20014;-66
2023/05/27 10:05:56;;;;;;;16.08;6.43;;;23.60;53.70;;;;;;7376011;19;20014;-66
2023/05/27 10:08:22;;;;;;;16.88;6.07;;;24.00;54.10;;;;;;7379785;19;20033;-66
2023/05/27 10:10:48;;;;;;;14.15;6.30;;;24.10;53.30;;;;;;7376613;19;21463;-66
2023/05/27 10:13:18;;;;;;;16.23;5.93;;;23.60;52.30;;;;;;7378674;19;20378;-66
2023/05/27 10:15:51;;;;;;;14.38;5.72;;;23.80;52.30;;;;;;7379303;19;20010;-66
2023/05/27 10:18:28;;;;;;;13.88;5.95;;;23.50;52.00;;;;;;7382157;19;20018;-65
2023/05/27 10:20:56;;;;;;;15.30;6.00;;;23.90;53.30;;;;;;7379352;19;20019;-65
2023/05/27 10:23:28;;;;;;;17.58;6.60;;;24.00;52.10;;;;;;7378428;19;20014;-66
2023/05/27 10:26:05;;;;;;;16.65;6.25;;;24.10;51.70;;;;;;7373269;19;21008;-68
2023/05/27 10:28:37;;;;;;;16.40;6.97;;;24.40;52.10;;;;;;7379561;19;20498;-64
2023/05/27 10:31:14;;;;;;;12.80;5.45;;;24.70;50.80;;;;;;7370939;19;20494;-68
2023/05/27 10:33:49;;;;;;;14.32;6.47;;;24.80;50.80;;;;;;7366694;19;20041;-69
2023/05/27 10:36:17;;;;;;;17.10;6.43;;;24.80;49.40;;;;;;7366298;19;20719;-68
2023/05/27 10:38:54;;;;;;;11.27;5.20;;;24.00;50.30;;;;;;7377724;19;20022;-65
2023/05/27 10:41:22;;;;;;;10.93;5.10;;;24.20;50.70;;;;;;7369367;19;20019;-70
2023/05/27 10:43:58;;;;;;;19.20;5.95;;;24.70;49.60;;;;;;7375161;19;20074;-65
2023/05/27 10:46:25;;;;;;;14.85;6.22;;;24.40;49.50;;;;;;7371104;19;20018;-68
2023/05/27 10:48:52;;;;;;;15.52;7.75;;;24.80;50.50;;;;;;7378916;19;20018;-64
2023/05/27 10:51:19;;;;;;;13.48;6.38;;;24.60;49.60;;;;;;7379988;19;20074;-65
2023/05/27 10:53:46;;;;;;;16.17;5.75;;;24.60;49.70;;;;;;7375001;19;20116;-67
2023/05/27 10:56:13;;;;;;;21.30;11.10;;;24.60;49.30;;;;;;7376562;19;20018;-66
2023/05/27 10:58:39;;;;;;;14.98;5.70;;;24.40;49.00;;;;;;7381368;19;21433;-66
2023/05/27 11:01:11;;;;;;;15.25;5.90;;;24.90;51.20;;;;;;7375496;19;20571;-66
2023/05/27 11:03:45;;;;;;;12.25;5.47;;;25.10;49.80;;;;;;7373852;19;20014;-65
2023/05/27 11:06:16;;;;;;;16.00;5.65;;;25.00;48.90;;;;;;7374915;19;20391;-65
2023/05/27 11:08:43;;;;;;;17.80;6.22;;;25.40;49.40;;;;;;7373435;19;20074;-66
2023/05/27 11:11:10;;;;;;;21.48;13.20;;;25.50;50.20;;;;;;7372270;19;20011;-68
2023/05/27 11:13:40;;;;;;;15.57;7.47;;;25.90;49.70;;;;;;7368610;19;20019;-70
2023/05/27 11:16:07;;;;;;;14.20;6.15;;;25.90;48.10;;;;;;7381284;19;20020;-66
2023/05/27 11:18:46;;;;;;;16.20;7.18;;;25.80;48.30;;;;;;7378712;19;20018;-66
2023/05/27 11:21:15;;;;;;;16.58;7.38;;;26.00;47.50;;;;;;7372342;19;20082;-66
2023/05/27 11:23:47;;;;;;;26.33;16.60;;;25.90;47.80;;;;;;7373958;19;20022;-69
2023/05/27 11:26:17;;;;;;;14.65;6.28;;;25.90;47.70;;;;;;7385679;19;20056;-69
2023/05/27 11:28:57;;;;;;;17.63;8.57;;;26.30;48.00;;;;;;7377958;19;20021;-68
2023/05/27 11:31:31;;;;;;;24.27;16.93;;;26.50;46.40;;;;;;7372143;19;20311;-68
2023/05/27 11:33:57;;;;;;;20.92;10.32;;;26.40;47.30;;;;;;7379027;19;20014;-63
2023/05/27 11:36:31;;;;;;;14.13;5.63;;;26.60;47.30;;;;;;7378990;19;20371;-69
2023/05/27 11:38:59;;;;;;;16.95;11.88;;;26.60;46.30;;;;;;7376160;19;20022;-67
2023/05/27 11:41:30;;;;;;;37.88;33.88;;;26.30;46.10;;;;;;7391591;19;20035;-64
2023/05/27 11:44:08;;;;;;;30.10;25.70;;;26.50;46.00;;;;;;7375814;19;20046;-67
2023/05/27 11:46:36;;;;;;;15.50;7.60;;;26.20;45.50;;;;;;7377341;19;20078;-68
2023/05/27 11:49:04;;;;;;;23.95;14.45;;;25.50;46.20;;;;;;7380809;19;20022;-64
2023/05/27 11:51:31;;;;;;;16.23;6.55;;;24.80;47.60;;;;;;7378487;19;20021;-64
2023/05/27 11:54:01;;;;;;;36.33;28.13;;;25.10;48.10;;;;;;7384793;19;20018;-64
2023/05/27 11:56:28;;;;;;;13.73;5.40;;;25.50;48.80;;;;;;7385370;19;20023;-63
2023/05/27 11:58:55;;;;;;;18.80;10.73;;;25.90;48.30;;;;;;7387910;19;20898;-64
2023/05/27 12:01:22;;;;;;;15.10;8.55;;;26.00;47.10;;;;;;7384628;19;20033;-66
2023/05/27 12:03:49;;;;;;;16.45;8.05;;;26.50;47.50;;;;;;7383830;19;20014;-64
2023/05/27 12:06:15;;;;;;;42.28;35.75;;;26.30;46.00;;;;;;7389642;19;20010;-64
2023/05/27 12:08:43;;;;;;;14.10;6.70;;;26.90;46.60;;;;;;7389352;19;20014;-64
2023/05/27 12:11:09;;;;;;;16.02;10.90;;;26.60;44.70;;;;;;7385134;19;20494;-64
2023/05/27 12:13:36;;;;;;;27.95;22.60;;;26.80;45.80;;;;;;7388619;19;20018;-64
2023/05/27 12:16:03;;;;;;;16.40;10.18;;;26.70;46.40;;;;;;7386457;19;20636;-63
2023/05/27 12:18:30;;;;;;;22.58;13.57;;;26.80;45.40;;;;;;7385127;19;20018;-64
2023/05/27 12:20:56;;;;;;;15.45;6.22;;;26.60;44.50;;;;;;7384315;19;20343;-64
2023/05/27 12:23:22;;;;;;;12.90;4.88;;;26.80;44.70;;;;;;7381271;19;20025;-66
2023/05/27 12:25:49;;;;;;;15.57;5.60;;;26.80;44.20;;;;;;7372554;19;20021;-64
2023/05/27 12:28:15;;;;;;;83.97;76.15;;;26.90;45.40;;;;;;7376149;19;20126;-63
2023/05/27 12:30:41;;;;;;;16.55;10.05;;;27.00;45.60;;;;;;7376879;19;20010;-63
2023/05/27 12:33:07;;;;;;;20.67;15.48;;;27.30;45.70;;;;;;7375557;19;20102;-62
2023/05/27 12:35:34;;;;;;;20.10;14.48;;;27.10;43.40;;;;;;7376170;19;20034;-63
2023/05/27 12:38:00;;;;;;;22.30;13.45;;;26.90;44.30;;;;;;7379084;19;20029;-62
2023/05/27 12:40:27;;;;;;;23.38;13.00;;;26.90;45.10;;;;;;7372656;19;20022;-63
2023/05/27 12:42:53;;;;;;;24.98;16.50;;;27.10;45.30;;;;;;7369241;19;20019;-63
2023/05/27 12:45:24;;;;;;;17.13;10.10;;;27.40;44.70;;;;;;7367450;19;20025;-64
2023/05/27 12:47:51;;;;;;;16.77;6.57;;;27.70;44.10;;;;;;7371227;19;20019;-62
2023/05/27 12:50:17;;;;;;;33.85;25.35;;;27.50;44.00;;;;;;7369036;19;20023;-63